Time,TemperatureF,DewpointF,PressureIn,WindDirection,WindDirectionDegrees,WindSpeedMPH,WindSpeedGustMPH,Humidity,HourlyPrecipIn,Conditions,Clouds,dailyrainin,SoftwareType,DateUTC
2013-05-13 00:00:00,52.9,48.0,30.42,West,276,0.0,0.0,82,0.00,,,-99.99,wx200d/1.3,2013-05-13 07:00:00,
2013-05-13 00:15:00,52.9,48.0,30.39,West,277,0.0,0.0,83,0.00,,,-99.99,wx200d/1.3,2013-05-13 07:15:00,
2013-05-13 00:30:00,52.9,48.0,30.39,West,274,0.0,0.0,83,0.00,,,-99.99,wx200d/1.3,2013-05-13 07:30:00,
2013-05-13 00:45:00,52.9,48.0,30.39,West,261,0.0,2.2,84,0.00,,,-99.99,wx200d/1.3,2013-05-13 07:45:00,
2013-05-13 01:00:00,53.8,48.0,30.39,SSW,212,0.0,0.0,84,0.00,,,-99.99,wx200d/1.3,2013-05-13 08:00:00,
2013-05-13 01:15:00,54.0,48.0,30.42,WNW,296,0.0,0.0,84,0.00,,,-99.99,wx200d/1.3,2013-05-13 08:15:00,
2013-05-13 01:30:00,54.1,48.0,30.42,ESE,105,0.0,0.0,83,0.00,,,-99.99,wx200d/1.3,2013-05-13 08:30:00,
2013-05-13 01:45:00,54.0,48.0,30.42,ENE,73,0.0,0.0,81,0.00,,,-99.99,wx200d/1.3,2013-05-13 08:45:00,
2013-05-13 02:00:00,53.8,48.0,30.39,ENE,74,0.0,0.0,80,0.00,,,-99.99,wx200d/1.3,2013-05-13 09:00:00,
2013-05-13 02:15:00,53.4,48.0,30.39,West,271,0.0,0.0,80,0.00,,,-99.99,wx200d/1.3,2013-05-13 09:15:00,
2013-05-13 02:30:00,53.2,48.0,30.39,NW,306,0.0,0.0,80,0.00,,,-99.99,wx200d/1.3,2013-05-13 09:30:00,
2013-05-13 02:45:00,53.4,48.0,30.39,West,277,0.0,2.2,80,0.00,,,-99.99,wx200d/1.3,2013-05-13 09:45:00,
2013-05-13 03:00:00,53.2,48.0,30.42,West,265,0.0,0.0,80,0.00,,,-99.99,wx200d/1.3,2013-05-13 10:00:00,
2013-05-13 03:15:00,53.1,48.0,30.39,West,265,0.0,0.0,80,0.00,,,-99.99,wx200d/1.3,2013-05-13 10:15:00,
2013-05-13 03:30:00,52.5,46.0,30.39,NW,326,0.0,0.0,80,0.00,,,-99.99,wx200d/1.3,2013-05-13 10:30:00,
2013-05-13 03:45:00,52.0,46.0,30.39,West,274,0.0,0.0,81,0.00,,,-99.99,wx200d/1.3,2013-05-13 10:45:00,
2013-05-13 04:00:00,51.8,46.0,30.39,East,79,0.0,0.0,83,0.00,,,-99.99,wx200d/1.3,2013-05-13 11:00:00,
2013-05-13 04:15:00,52.0,46.0,30.39,West,271,0.0,0.0,84,0.00,,,-99.99,wx200d/1.3,2013-05-13 11:15:00,
2013-05-13 04:30:00,52.7,50.0,30.42,East,81,0.0,0.0,85,0.00,,,-99.99,wx200d/1.3,2013-05-13 11:30:00,
2013-05-13 04:45:00,52.7,50.0,30.39,WNW,287,0.0,0.0,85,0.00,,,-99.99,wx200d/1.3,2013-05-13 11:45:00,
2013-05-13 05:00:00,53.1,50.0,30.39,WNW,287,0.0,0.0,85,0.00,,,-99.99,wx200d/1.3,2013-05-13 12:00:00,
2013-05-13 05:15:00,53.8,50.0,30.42,West,281,0.0,0.0,85,0.00,,,-99.99,wx200d/1.3,2013-05-13 12:15:00,
2013-05-13 05:30:00,54.1,50.0,30.42,West,267,0.0,0.0,85,0.00,,,-99.99,wx200d/1.3,2013-05-13 12:30:00,
2013-05-13 05:45:00,54.1,48.0,30.42,East,85,0.0,0.0,84,0.00,,,-99.99,wx200d/1.3,2013-05-13 12:45:00,
2013-05-13 06:00:00,54.1,48.0,30.42,East,100,0.0,2.2,84,0.00,,,-99.99,wx200d/1.3,2013-05-13 13:00:00,
2013-05-13 06:15:00,54.3,48.0,30.42,East,84,0.0,0.0,84,0.00,,,-99.99,wx200d/1.3,2013-05-13 13:15:00,
2013-05-13 06:30:00,54.5,50.0,30.42,WNW,292,0.0,0.0,84,0.00,,,-99.99,wx200d/1.3,2013-05-13 13:30:00,
2013-05-13 06:45:00,54.9,50.0,30.42,WNW,292,0.0,0.0,84,0.00,,,-99.99,wx200d/1.3,2013-05-13 13:45:00,
2013-05-13 07:00:00,55.0,50.0,30.42,WNW,292,0.0,0.0,83,0.00,,,-99.99,wx200d/1.3,2013-05-13 14:00:00,
2013-05-13 07:15:00,55.0,50.0,30.42,NW,319,0.0,0.0,82,0.00,,,-99.99,wx200d/1.3,2013-05-13 14:15:00,
2013-05-13 07:30:00,56.1,50.0,30.45,NW,319,0.0,0.0,80,0.00,,,-99.99,wx200d/1.3,2013-05-13 14:30:00,
2013-05-13 07:45:00,56.7,48.0,30.45,East,85,0.0,0.0,73,0.00,,,-99.99,wx200d/1.3,2013-05-13 14:45:00,
2013-05-13 08:00:00,57.2,46.0,30.45,NNE,28,0.0,0.0,67,0.00,,,-99.99,wx200d/1.3,2013-05-13 15:00:00,
2013-05-13 08:15:00,58.5,46.0,30.45,East,79,0.0,0.0,63,0.00,,,-99.99,wx200d/1.3,2013-05-13 15:15:00,
2013-05-13 08:30:00,59.2,43.0,30.45,West,281,0.0,0.0,55,0.00,,,-99.99,wx200d/1.3,2013-05-13 15:30:00,
2013-05-13 08:45:00,59.2,41.0,30.45,West,273,0.0,2.7,50,0.00,,,-99.99,wx200d/1.3,2013-05-13 15:45:00,
2013-05-13 09:15:00,61.3,39.0,30.45,West,264,0.0,2.7,45,0.00,,,-99.99,wx200d/1.3,2013-05-13 16:15:00,
2013-05-13 09:30:00,61.7,39.0,30.45,ESE,102,2.7,4.0,43,0.00,,,-99.99,wx200d/1.3,2013-05-13 16:30:00,
2013-05-13 09:45:00,63.9,39.0,30.45,SW,218,2.2,0.0,38,0.00,,,-99.99,wx200d/1.3,2013-05-13 16:45:00,
2013-05-13 10:00:00,64.0,37.0,30.47,West,273,0.0,0.0,37,0.00,,,-99.99,wx200d/1.3,2013-05-13 17:00:00,
2013-05-13 10:15:00,64.4,37.0,30.47,West,261,0.0,0.0,36,0.00,,,-99.99,wx200d/1.3,2013-05-13 17:15:00,
2013-05-13 10:30:00,65.8,36.0,30.45,East,87,0.0,0.0,33,0.00,,,-99.99,wx200d/1.3,2013-05-13 17:30:00,
2013-05-13 10:45:00,66.7,36.0,30.47,ENE,78,0.0,0.0,32,0.00,,,-99.99,wx200d/1.3,2013-05-13 17:45:00,
2013-05-13 11:00:00,66.9,36.0,30.45,WSW,258,0.0,2.2,32,0.00,,,-99.99,wx200d/1.3,2013-05-13 18:00:00,
2013-05-13 11:15:00,67.8,36.0,30.47,ENE,78,0.0,0.0,30,0.00,,,-99.99,wx200d/1.3,2013-05-13 18:15:00,
2013-05-13 11:30:00,65.8,36.0,30.45,North,349,0.0,0.0,33,0.00,,,-99.99,wx200d/1.3,2013-05-13 18:30:00,
2013-05-13 11:45:00,64.9,36.0,30.45,East,94,0.0,3.6,34,0.00,,,-99.99,wx200d/1.3,2013-05-13 18:45:00,
2013-05-13 12:00:00,65.1,36.0,30.45,WNW,291,2.2,3.1,34,0.00,,,-99.99,wx200d/1.3,2013-05-13 19:00:00,
2013-05-13 12:15:00,66.6,36.0,30.45,West,273,2.2,0.0,33,0.00,,,-99.99,wx200d/1.3,2013-05-13 19:15:00,
2013-05-13 12:30:00,65.5,36.0,30.45,West,260,2.2,0.0,33,0.00,,,-99.99,wx200d/1.3,2013-05-13 19:30:00,
2013-05-13 12:45:00,64.4,36.0,30.45,East,95,0.0,3.1,34,0.00,,,-99.99,wx200d/1.3,2013-05-13 19:45:00,
2013-05-13 13:00:00,64.6,36.0,30.45,West,268,0.0,0.0,35,0.00,,,-99.99,wx200d/1.3,2013-05-13 20:00:00,
2013-05-13 13:15:00,64.9,36.0,30.45,WNW,298,2.2,2.7,35,0.00,,,-99.99,wx200d/1.3,2013-05-13 20:15:00,
2013-05-13 13:30:00,64.6,36.0,30.45,NE,52,3.1,3.6,35,0.00,,,-99.99,wx200d/1.3,2013-05-13 20:30:00,
2013-05-13 13:45:00,64.9,36.0,30.42,West,268,2.7,0.0,34,0.00,,,-99.99,wx200d/1.3,2013-05-13 20:45:00,
2013-05-13 14:00:00,64.9,36.0,30.42,North,357,0.0,0.0,35,0.00,,,-99.99,wx200d/1.3,2013-05-13 21:00:00,
2013-05-13 14:15:00,65.1,36.0,30.42,NW,314,0.0,0.0,34,0.00,,,-99.99,wx200d/1.3,2013-05-13 21:15:00,
2013-05-13 14:30:00,65.1,36.0,30.42,WSW,238,0.0,4.0,34,0.00,,,-99.99,wx200d/1.3,2013-05-13 21:30:00,
2013-05-13 14:45:00,65.5,37.0,30.42,WNW,296,0.0,0.0,34,0.00,,,-99.99,wx200d/1.3,2013-05-13 21:45:00,
2013-05-13 15:00:00,65.1,36.0,30.39,ENE,76,2.2,5.4,34,0.00,,,-99.99,wx200d/1.3,2013-05-13 22:00:00,
2013-05-13 15:15:00,65.1,36.0,30.42,WSW,247,2.2,0.0,34,0.00,,,-99.99,wx200d/1.3,2013-05-13 22:15:00,
2013-05-13 15:30:00,65.1,36.0,30.42,East,89,0.0,3.6,34,0.00,,,-99.99,wx200d/1.3,2013-05-13 22:30:00,
2013-05-13 15:45:00,65.1,36.0,30.39,WSW,256,0.0,2.7,34,0.00,,,-99.99,wx200d/1.3,2013-05-13 22:45:00,
2013-05-13 16:00:00,65.3,36.0,30.39,ENE,57,0.0,4.9,33,0.00,,,-99.99,wx200d/1.3,2013-05-13 23:00:00,
2013-05-13 16:15:00,65.5,36.0,30.39,East,83,2.7,3.6,33,0.00,,,-99.99,wx200d/1.3,2013-05-13 23:15:00,
2013-05-13 16:30:00,65.3,36.0,30.36,WSW,249,0.0,0.0,33,0.00,,,-99.99,wx200d/1.3,2013-05-13 23:30:00,
2013-05-13 16:45:00,64.8,34.0,30.36,West,277,4.0,4.0,33,0.00,,,-99.99,wx200d/1.3,2013-05-13 23:45:00,
2013-05-13 17:00:00,64.9,34.0,30.36,NW,304,0.0,4.0,33,0.00,,,-99.99,wx200d/1.3,2013-05-14 00:00:00,
2013-05-13 17:15:00,64.4,36.0,30.36,East,96,3.1,3.1,34,0.00,,,-99.99,wx200d/1.3,2013-05-14 00:15:00,
2013-05-13 17:30:00,63.9,36.0,30.36,WNW,285,4.5,4.5,34,0.00,,,-99.99,wx200d/1.3,2013-05-14 00:30:00,
2013-05-13 17:45:00,64.4,34.0,30.33,WNW,291,4.9,4.9,33,0.00,,,-99.99,wx200d/1.3,2013-05-14 00:45:00,
2013-05-13 18:00:00,65.8,34.0,30.33,West,280,4.9,6.7,31,0.00,,,-99.99,wx200d/1.3,2013-05-14 01:00:00,
2013-05-13 18:15:00,66.9,32.0,30.33,NW,320,4.0,4.0,28,0.00,,,-99.99,wx200d/1.3,2013-05-14 01:15:00,
2013-05-13 18:30:00,67.1,32.0,30.33,WNW,300,3.1,6.3,26,0.00,,,-99.99,wx200d/1.3,2013-05-14 01:30:00,
2013-05-13 18:45:00,67.1,32.0,30.30,West,271,4.0,4.0,25,0.00,,,-99.99,wx200d/1.3,2013-05-14 01:45:00,
2013-05-13 19:00:00,66.0,32.0,30.33,West,266,3.1,3.1,25,0.00,,,-99.99,wx200d/1.3,2013-05-14 02:00:00,
2013-05-13 19:15:00,64.2,32.0,30.33,East,97,3.1,3.1,26,0.00,,,-99.99,wx200d/1.3,2013-05-14 02:15:00,
2013-05-13 19:30:00,61.7,32.0,30.33,SW,236,2.7,0.0,30,0.00,,,-99.99,wx200d/1.3,2013-05-14 02:30:00,
2013-05-13 19:45:00,60.1,32.0,30.33,SE,135,2.7,2.7,34,0.00,,,-99.99,wx200d/1.3,2013-05-14 02:45:00,
2013-05-13 20:00:00,58.6,32.0,30.33,NW,307,0.0,0.0,36,0.00,,,-99.99,wx200d/1.3,2013-05-14 03:00:00,
2013-05-13 20:15:00,57.7,32.0,30.33,WNW,284,0.0,2.7,38,0.00,,,-99.99,wx200d/1.3,2013-05-14 03:15:00,
2013-05-13 20:30:00,57.0,36.0,30.33,WNW,291,0.0,2.7,43,0.00,,,-99.99,wx200d/1.3,2013-05-14 03:30:00,
2013-05-13 20:45:00,56.7,37.0,30.33,WNW,282,0.0,0.0,46,0.00,,,-99.99,wx200d/1.3,2013-05-14 03:45:00,
2013-05-13 21:00:00,56.3,37.0,30.33,West,269,0.0,0.0,48,0.00,,,-99.99,wx200d/1.3,2013-05-14 04:00:00,
2013-05-13 21:15:00,56.3,37.0,30.33,West,269,0.0,0.0,48,0.00,,,-99.99,wx200d/1.3,2013-05-14 04:15:00,
2013-05-13 21:30:00,56.1,36.0,30.33,West,269,0.0,0.0,48,0.00,,,-99.99,wx200d/1.3,2013-05-14 04:30:00,
2013-05-13 21:45:00,55.9,37.0,30.33,West,268,0.0,0.0,50,0.00,,,-99.99,wx200d/1.3,2013-05-14 04:45:00,
2013-05-13 22:00:00,55.6,37.0,30.33,West,268,0.0,0.0,50,0.00,,,-99.99,wx200d/1.3,2013-05-14 05:00:00,
2013-05-13 22:15:00,55.6,37.0,30.33,West,268,0.0,0.0,52,0.00,,,-99.99,wx200d/1.3,2013-05-14 05:15:00,
2013-05-13 22:30:00,55.0,39.0,30.33,West,268,0.0,0.0,53,0.00,,,-99.99,wx200d/1.3,2013-05-14 05:30:00,
2013-05-13 22:45:00,55.2,39.0,30.33,West,268,0.0,0.0,54,0.00,,,-99.99,wx200d/1.3,2013-05-14 05:45:00,
2013-05-13 23:00:00,55.0,39.0,30.33,West,268,0.0,0.0,54,0.00,,,-99.99,wx200d/1.3,2013-05-14 06:00:00,
2013-05-13 23:15:00,54.5,41.0,30.33,WNW,295,0.0,0.0,58,0.00,,,-99.99,wx200d/1.3,2013-05-14 06:15:00,
2013-05-13 23:30:00,54.1,41.0,30.33,NNW,327,0.0,0.0,63,0.00,,,-99.99,wx200d/1.3,2013-05-14 06:30:00,
2013-05-13 23:45:00,53.6,43.0,30.33,NW,313,0.0,0.0,65,0.00,,,-99.99,wx200d/1.3,2013-05-14 06:45:00,